createdAt,value
2022-11-12T07:59:58.032Z,20.63
2022-11-12T08:07:58.789Z,21.00
2022-11-12T08:10:39.962Z,23.67
2022-11-12T08:13:20.021Z,23.02
2022-11-12T08:16:05.113Z,24.17
2022-11-12T08:19:06.058Z,24.88
2022-11-12T08:21:40.349Z,26.45
2022-11-12T08:24:15.429Z,27.95
2022-11-12T08:27:32.515Z,28.08
2022-11-12T08:30:59.767Z,38.45
2022-11-12T08:44:33.626Z,67.22
2022-11-12T08:47:21.310Z,46.28
2022-11-12T09:14:40.974Z,25.00
2022-11-12T09:25:42.999Z,15.10
2022-11-12T09:28:26.937Z,14.63
2022-11-12T09:30:59.235Z,24.13
2022-11-12T09:33:47.017Z,27.23
2022-11-12T09:39:10.182Z,13.15
2022-11-12T09:41:46.197Z,11.48
2022-11-12T09:45:04.125Z,9.75
2022-11-12T09:48:08.498Z,7.65
2022-11-12T09:55:34.306Z,15.25
2022-11-12T09:58:25.259Z,16.40
2022-11-12T10:01:37.631Z,10.20
2022-11-12T10:05:06.234Z,7.50
2022-11-12T10:08:32.631Z,10.35
2022-11-12T10:12:02.796Z,11.35
2022-11-12T10:16:02.590Z,8.45
2022-11-12T10:40:37.972Z,5.40
2022-11-12T10:43:45.879Z,4.50
2022-11-12T10:49:58.717Z,3.42
2022-11-12T10:52:39.004Z,3.22
2022-11-12T10:55:25.162Z,3.40
2022-11-12T10:58:39.596Z,3.15
2022-11-12T11:01:21.935Z,3.13
2022-11-12T11:03:59.988Z,2.75
2022-11-12T11:06:56.852Z,2.80
2022-11-12T11:10:22.733Z,2.80
2022-11-12T11:13:24.653Z,2.80
2022-11-12T11:16:16.590Z,2.97
2022-11-12T11:19:27.576Z,3.08
2022-11-12T11:22:28.919Z,3.85
2022-11-12T11:25:42.936Z,3.40
2022-11-12T11:28:49.312Z,3.35
2022-11-12T11:31:47.144Z,3.00
2022-11-12T11:35:15.492Z,3.10
2022-11-12T11:38:50.779Z,2.78
2022-11-12T12:18:44.185Z,3.25
2022-11-12T12:21:17.070Z,3.10
2022-11-12T12:23:50.305Z,2.60
2022-11-12T12:26:22.463Z,3.55
2022-11-12T12:28:57.046Z,3.65
2022-11-12T12:31:29.110Z,2.60
2022-11-12T12:34:01.155Z,2.95
2022-11-12T12:36:33.282Z,2.90
2022-11-12T12:39:16.467Z,3.38
2022-11-12T12:41:52.972Z,3.28
2022-11-12T12:44:22.363Z,3.53
2022-11-12T12:46:57.141Z,3.47
2022-11-12T12:49:31.705Z,3.15
2022-11-12T12:52:00.494Z,3.35
2022-11-12T12:54:58.580Z,3.55
2022-11-12T12:57:34.435Z,3.58
2022-11-12T13:00:33.322Z,4.07
2022-11-12T13:03:02.297Z,5.60
2022-11-12T13:05:32.338Z,6.83
2022-11-12T13:08:07.104Z,5.50
2022-11-12T13:10:51.192Z,4.32
2022-11-12T13:13:32.815Z,3.95
2022-11-12T13:16:02.333Z,3.83
2022-11-12T13:19:02.327Z,3.58
2022-11-12T13:21:30.978Z,4.20
2022-11-12T13:24:08.046Z,4.28
2022-11-12T13:26:57.048Z,4.40
2022-11-12T13:29:47.829Z,3.90
2022-11-12T13:32:54.811Z,3.80
2022-11-12T13:35:31.246Z,4.30
2022-11-12T13:38:02.512Z,3.97
2022-11-12T13:40:52.938Z,4.28
2022-11-12T13:43:40.385Z,4.00
2022-11-12T13:46:26.878Z,3.33
2022-11-12T13:49:00.831Z,3.78
2022-11-12T13:51:38.956Z,2.90
2022-11-12T13:54:30.451Z,3.38
2022-11-12T13:57:14.522Z,3.72
2022-11-12T13:59:44.361Z,3.63
2022-11-12T14:04:45.978Z,3.65
2022-11-12T14:07:37.827Z,3.80
2022-11-12T14:10:18.068Z,3.95
2022-11-12T14:13:07.244Z,4.53
2022-11-12T14:15:53.276Z,4.35
2022-11-12T14:18:31.641Z,4.35
2022-11-12T14:21:01.960Z,4.00
2022-11-12T14:23:30.333Z,3.90
2022-11-12T14:25:58.880Z,3.90
